sensor_id;sensor_type;location;lat;lon;timestamp;temperature;humidity
15926;DHT22;8062;53.882;10.642;2023-06-24T00:00:22;14.20;99.90
15926;DHT22;8062;53.882;10.642;2023-06-24T00:01:42;14.10;99.90
15926;DHT22;8062;53.882;10.642;2023-06-24T00:03:02;14.10;99.90
15926;DHT22;8062;53.882;10.642;2023-06-24T00:04:22;14.00;99.90
15926;DHT22;8062;53.882;10.642;2023-06-24T00:05:43;14.00;99.90
15926;DHT22;8062;53.882;10.642;2023-06-24T00:07:02;13.90;99.90
15926;DHT22;8062;53.882;10.642;2023-06-24T00:08:22;13.90;99.90
15926;DHT22;8062;53.882;10.642;2023-06-24T00:09:42;13.90;99.90
15926;DHT22;8062;53.882;10.642;2023-06-24T00:11:02;13.80;99.90
15926;DHT22;8062;53.882;10.642;2023-06-24T00:12:22;13.80;99.90
15926;DHT22;8062;53.882;10.642;2023-06-24T00:13:43;13.80;99.90
15926;DHT22;8062;53.882;10.642;2023-06-24T00:15:03;13.80;99.90
15926;DHT22;8062;53.882;10.642;2023-06-24T00:16:22;13.80;99.90
15926;DHT22;8062;53.882;10.642;2023-06-24T00:17:45;13.80;99.90
15926;DHT22;8062;53.882;10.642;2023-06-24T00:19:05;13.70;99.90
15926;DHT22;8062;53.882;10.642;2023-06-24T00:20:25;13.70;99.90
15926;DHT22;8062;53.882;10.642;2023-06-24T00:21:45;13.70;99.90
15926;DHT22;8062;53.882;10.642;2023-06-24T00:23:05;13.60;99.90
15926;DHT22;8062;53.882;10.642;2023-06-24T00:24:25;13.60;99.90
15926;DHT22;8062;53.882;10.642;2023-06-24T00:25:44;13.60;99.90
15926;DHT22;8062;53.882;10.642;2023-06-24T00:27:04;13.50;99.90
15926;DHT22;8062;53.882;10.642;2023-06-24T00:28:25;13.50;99.90
15926;DHT22;8062;53.882;10.642;2023-06-24T00:29:44;13.40;99.90
15926;DHT22;8062;53.882;10.642;2023-06-24T00:31:04;13.40;99.90
15926;DHT22;8062;53.882;10.642;2023-06-24T00:32:24;13.40;99.90
15926;DHT22;8062;53.882;10.642;2023-06-24T00:33:43;13.30;99.90
15926;DHT22;8062;53.882;10.642;2023-06-24T00:35:03;13.30;99.90
15926;DHT22;8062;53.882;10.642;2023-06-24T00:36:23;13.30;99.90
15926;DHT22;8062;53.882;10.642;2023-06-24T00:37:43;13.20;99.90
15926;DHT22;8062;53.882;10.642;2023-06-24T00:39:05;13.20;99.90
15926;DHT22;8062;53.882;10.642;2023-06-24T00:40:25;13.10;99.90
15926;DHT22;8062;53.882;10.642;2023-06-24T00:41:45;13.10;99.90
15926;DHT22;8062;53.882;10.642;2023-06-24T00:43:07;13.00;99.90
15926;DHT22;8062;53.882;10.642;2023-06-24T00:44:28;13.00;99.90
15926;DHT22;8062;53.882;10.642;2023-06-24T00:45:47;13.00;99.90
15926;DHT22;8062;53.882;10.642;2023-06-24T00:47:08;12.90;99.90
15926;DHT22;8062;53.882;10.642;2023-06-24T00:48:28;12.90;99.90
15926;DHT22;8062;53.882;10.642;2023-06-24T00:49:50;12.90;99.90
15926;DHT22;8062;53.882;10.642;2023-06-24T00:51:10;12.80;99.90
15926;DHT22;8062;53.882;10.642;2023-06-24T00:52:30;12.80;99.90
15926;DHT22;8062;53.882;10.642;2023-06-24T00:53:49;12.80;99.90
15926;DHT22;8062;53.882;10.642;2023-06-24T00:55:12;12.80;99.90
15926;DHT22;8062;53.882;10.642;2023-06-24T00:56:34;12.80;99.90
15926;DHT22;8062;53.882;10.642;2023-06-24T00:57:57;12.80;99.90
15926;DHT22;8062;53.882;10.642;2023-06-24T00:59:19;12.70;99.90
15926;DHT22;8062;53.882;10.642;2023-06-24T01:00:39;12.70;99.90
15926;DHT22;8062;53.882;10.642;2023-06-24T01:02:00;12.60;99.90
15926;DHT22;8062;53.882;10.642;2023-06-24T01:03:21;12.60;99.90
15926;DHT22;8062;53.882;10.642;2023-06-24T01:04:41;12.60;99.90
15926;DHT22;8062;53.882;10.642;2023-06-24T01:06:00;12.60;99.90
15926;DHT22;8062;53.882;10.642;2023-06-24T01:07:21;12.60;99.90
15926;DHT22;8062;53.882;10.642;2023-06-24T01:08:41;12.60;99.90
15926;DHT22;8062;53.882;10.642;2023-06-24T01:10:00;12.50;99.90
15926;DHT22;8062;53.882;10.642;2023-06-24T01:11:20;12.50;99.90
15926;DHT22;8062;53.882;10.642;2023-06-24T01:12:40;12.50;99.90
15926;DHT22;8062;53.882;10.642;2023-06-24T01:14:01;12.50;99.90
15926;DHT22;8062;53.882;10.642;2023-06-24T01:15:21;12.40;99.90
15926;DHT22;8062;53.882;10.642;2023-06-24T01:21:42;12.30;99.90
15926;DHT22;8062;53.882;10.642;2023-06-24T01:23:37;12.30;99.90
15926;DHT22;8062;53.882;10.642;2023-06-24T01:27:02;12.30;99.90
15926;DHT22;8062;53.882;10.642;2023-06-24T01:30:50;12.30;99.90
15926;DHT22;8062;53.882;10.642;2023-06-24T01:32:34;12.30;99.90
15926;DHT22;8062;53.882;10.642;2023-06-24T01:34:15;12.30;99.90
15926;DHT22;8062;53.882;10.642;2023-06-24T01:35:38;12.30;99.90
15926;DHT22;8062;53.882;10.642;2023-06-24T01:37:16;12.40;99.90
15926;DHT22;8062;53.882;10.642;2023-06-24T01:38:43;12.30;99.90
15926;DHT22;8062;53.882;10.642;2023-06-24T01:40:28;12.30;99.90
15926;DHT22;8062;53.882;10.642;2023-06-24T01:42:03;12.30;99.90
15926;DHT22;8062;53.882;10.642;2023-06-24T01:43:25;12.40;99.90
15926;DHT22;8062;53.882;10.642;2023-06-24T01:44:47;12.40;99.90
15926;DHT22;8062;53.882;10.642;2023-06-24T01:46:09;12.40;99.90
15926;DHT22;8062;53.882;10.642;2023-06-24T01:47:29;12.40;99.90
15926;DHT22;8062;53.882;10.642;2023-06-24T01:48:50;12.40;99.90
15926;DHT22;8062;53.882;10.642;2023-06-24T01:50:15;12.40;99.90
15926;DHT22;8062;53.882;10.642;2023-06-24T01:51:38;12.40;99.90
15926;DHT22;8062;53.882;10.642;2023-06-24T01:53:02;12.40;99.90
15926;DHT22;8062;53.882;10.642;2023-06-24T01:54:26;12.40;99.90
15926;DHT22;8062;53.882;10.642;2023-06-24T01:55:46;12.40;99.90
15926;DHT22;8062;53.882;10.642;2023-06-24T01:57:08;12.30;99.90
15926;DHT22;8062;53.882;10.642;2023-06-24T01:58:30;12.30;99.90
15926;DHT22;8062;53.882;10.642;2023-06-24T01:59:53;12.20;99.90
15926;DHT22;8062;53.882;10.642;2023-06-24T02:01:15;12.20;99.90
15926;DHT22;8062;53.882;10.642;2023-06-24T02:02:36;12.20;99.90
15926;DHT22;8062;53.882;10.642;2023-06-24T02:03:56;12.20;99.90
15926;DHT22;8062;53.882;10.642;2023-06-24T02:05:17;12.10;99.90
15926;DHT22;8062;53.882;10.642;2023-06-24T02:06:40;12.10;99.90
15926;DHT22;8062;53.882;10.642;2023-06-24T02:08:00;12.10;99.90
15926;DHT22;8062;53.882;10.642;2023-06-24T02:09:20;12.10;99.90
15926;DHT22;8062;53.882;10.642;2023-06-24T02:10:41;12.10;99.90
15926;DHT22;8062;53.882;10.642;2023-06-24T02:12:03;12.00;99.90
15926;DHT22;8062;53.882;10.642;2023-06-24T02:13:25;12.10;99.90
15926;DHT22;8062;53.882;10.642;2023-06-24T02:14:44;12.00;99.90
15926;DHT22;8062;53.882;10.642;2023-06-24T02:16:06;12.00;99.90
15926;DHT22;8062;53.882;10.642;2023-06-24T02:17:28;12.00;99.90
15926;DHT22;8062;53.882;10.642;2023-06-24T02:18:49;11.90;99.90
15926;DHT22;8062;53.882;10.642;2023-06-24T02:20:10;11.90;99.90
15926;DHT22;8062;53.882;10.642;2023-06-24T02:21:29;11.90;99.90
15926;DHT22;8062;53.882;10.642;2023-06-24T02:22:50;11.90;99.90
15926;DHT22;8062;53.882;10.642;2023-06-24T02:24:10;11.80;99.90
15926;DHT22;8062;53.882;10.642;2023-06-24T02:25:31;11.80;99.90
15926;DHT22;8062;53.882;10.642;2023-06-24T02:26:51;11.80;99.90
15926;DHT22;8062;53.882;10.642;2023-06-24T02:28:12;11.80;99.90
15926;DHT22;8062;53.882;10.642;2023-06-24T02:29:32;11.80;99.90
15926;DHT22;8062;53.882;10.642;2023-06-24T02:30:54;11.80;99.90
15926;DHT22;8062;53.882;10.642;2023-06-24T02:32:14;11.80;99.90
15926;DHT22;8062;53.882;10.642;2023-06-24T02:33:33;11.80;99.90
15926;DHT22;8062;53.882;10.642;2023-06-24T02:34:53;11.80;99.90
15926;DHT22;8062;53.882;10.642;2023-06-24T02:36:14;11.80;99.90
15926;DHT22;8062;53.882;10.642;2023-06-24T02:37:34;11.90;99.90
15926;DHT22;8062;53.882;10.642;2023-06-24T02:38:54;11.90;99.90
15926;DHT22;8062;53.882;10.642;2023-06-24T02:40:14;12.00;99.90
15926;DHT22;8062;53.882;10.642;2023-06-24T02:41:35;12.00;99.90
15926;DHT22;8062;53.882;10.642;2023-06-24T02:42:57;11.90;99.90
15926;DHT22;8062;53.882;10.642;2023-06-24T02:44:17;11.90;99.90
15926;DHT22;8062;53.882;10.642;2023-06-24T02:45:38;11.90;99.90
15926;DHT22;8062;53.882;10.642;2023-06-24T02:46:58;11.80;99.90
15926;DHT22;8062;53.882;10.642;2023-06-24T02:48:19;11.80;99.90
15926;DHT22;8062;53.882;10.642;2023-06-24T02:49:40;11.80;99.90
15926;DHT22;8062;53.882;10.642;2023-06-24T02:51:02;11.80;99.90
15926;DHT22;8062;53.882;10.642;2023-06-24T02:52:23;11.70;99.90
15926;DHT22;8062;53.882;10.642;2023-06-24T02:53:45;11.80;99.90
15926;DHT22;8062;53.882;10.642;2023-06-24T02:55:06;11.80;99.90
15926;DHT22;8062;53.882;10.642;2023-06-24T02:56:38;11.80;99.90
15926;DHT22;8062;53.882;10.642;2023-06-24T02:58:03;11.90;99.90
15926;DHT22;8062;53.882;10.642;2023-06-24T02:59:23;11.90;99.90
15926;DHT22;8062;53.882;10.642;2023-06-24T03:00:44;11.90;99.90
15926;DHT22;8062;53.882;10.642;2023-06-24T03:02:04;12.00;99.90
15926;DHT22;8062;53.882;10.642;2023-06-24T03:03:25;12.00;99.90
15926;DHT22;8062;53.882;10.642;2023-06-24T03:04:50;12.10;99.90
15926;DHT22;8062;53.882;10.642;2023-06-24T03:06:10;12.00;99.90
15926;DHT22;8062;53.882;10.642;2023-06-24T03:07:33;12.00;99.90
15926;DHT22;8062;53.882;10.642;2023-06-24T03:08:54;12.00;99.90
15926;DHT22;8062;53.882;10.642;2023-06-24T03:10:16;11.90;99.90
15926;DHT22;8062;53.882;10.642;2023-06-24T03:11:45;11.90;99.90
15926;DHT22;8062;53.882;10.642;2023-06-24T03:13:08;11.80;99.90
15926;DHT22;8062;53.882;10.642;2023-06-24T03:14:36;11.80;99.90
15926;DHT22;8062;53.882;10.642;2023-06-24T03:15:56;11.80;99.90
15926;DHT22;8062;53.882;10.642;2023-06-24T03:17:15;11.80;99.90
15926;DHT22;8062;53.882;10.642;2023-06-24T03:18:37;11.90;99.90
15926;DHT22;8062;53.882;10.642;2023-06-24T03:19:58;11.90;99.90
15926;DHT22;8062;53.882;10.642;2023-06-24T03:21:18;12.00;99.90
15926;DHT22;8062;53.882;10.642;2023-06-24T03:22:38;12.00;99.90
15926;DHT22;8062;53.882;10.642;2023-06-24T03:24:01;12.00;99.90
15926;DHT22;8062;53.882;10.642;2023-06-24T03:25:21;12.00;99.90
15926;DHT22;8062;53.882;10.642;2023-06-24T03:26:41;11.90;99.90
15926;DHT22;8062;53.882;10.642;2023-06-24T03:28:04;11.90;99.90
15926;DHT22;8062;53.882;10.642;2023-06-24T03:29:29;12.00;99.90
15926;DHT22;8062;53.882;10.642;2023-06-24T03:30:57;12.00;99.90
15926;DHT22;8062;53.882;10.642;2023-06-24T03:32:18;12.00;99.90
15926;DHT22;8062;53.882;10.642;2023-06-24T03:33:37;12.00;99.90
15926;DHT22;8062;53.882;10.642;2023-06-24T03:34:58;11.90;99.90
15926;DHT22;8062;53.882;10.642;2023-06-24T03:36:18;11.90;99.90
15926;DHT22;8062;53.882;10.642;2023-06-24T03:37:38;11.80;99.90
15926;DHT22;8062;53.882;10.642;2023-06-24T03:38:57;11.80;99.90
15926;DHT22;8062;53.882;10.642;2023-06-24T03:40:18;11.80;99.90
15926;DHT22;8062;53.882;10.642;2023-06-24T03:41:37;11.90;99.90
15926;DHT22;8062;53.882;10.642;2023-06-24T03:42:58;11.90;99.90
15926;DHT22;8062;53.882;10.642;2023-06-24T03:44:18;11.80;99.90
15926;DHT22;8062;53.882;10.642;2023-06-24T03:45:38;11.80;99.90
15926;DHT22;8062;53.882;10.642;2023-06-24T03:46:58;11.80;99.90
15926;DHT22;8062;53.882;10.642;2023-06-24T03:48:18;11.80;99.90
15926;DHT22;8062;53.882;10.642;2023-06-24T03:49:37;11.80;99.90
15926;DHT22;8062;53.882;10.642;2023-06-24T03:50:58;11.80;99.90
15926;DHT22;8062;53.882;10.642;2023-06-24T03:52:19;11.70;99.90
15926;DHT22;8062;53.882;10.642;2023-06-24T03:53:38;11.80;99.90
15926;DHT22;8062;53.882;10.642;2023-06-24T03:54:58;11.80;99.90
15926;DHT22;8062;53.882;10.642;2023-06-24T03:56:18;11.80;99.90
15926;DHT22;8062;53.882;10.642;2023-06-24T03:57:38;11.90;99.90
15926;DHT22;8062;53.882;10.642;2023-06-24T03:58:58;12.00;99.90
15926;DHT22;8062;53.882;10.642;2023-06-24T04:00:19;12.10;99.90
15926;DHT22;8062;53.882;10.642;2023-06-24T04:01:40;12.20;99.90
15926;DHT22;8062;53.882;10.642;2023-06-24T04:03:00;12.30;99.90
15926;DHT22;8062;53.882;10.642;2023-06-24T04:04:20;12.50;99.90
15926;DHT22;8062;53.882;10.642;2023-06-24T04:05:41;12.50;99.90
15926;DHT22;8062;53.882;10.642;2023-06-24T04:07:01;12.50;99.90
15926;DHT22;8062;53.882;10.642;2023-06-24T04:08:21;12.60;99.90
15926;DHT22;8062;53.882;10.642;2023-06-24T04:09:41;12.70;99.90
15926;DHT22;8062;53.882;10.642;2023-06-24T04:11:00;12.70;99.90
15926;DHT22;8062;53.882;10.642;2023-06-24T04:12:22;12.80;99.90
15926;DHT22;8062;53.882;10.642;2023-06-24T04:13:42;12.90;99.90
15926;DHT22;8062;53.882;10.642;2023-06-24T04:15:03;12.90;99.90
15926;DHT22;8062;53.882;10.642;2023-06-24T04:16:23;12.90;99.90
15926;DHT22;8062;53.882;10.642;2023-06-24T04:17:42;13.00;99.90
15926;DHT22;8062;53.882;10.642;2023-06-24T04:19:02;13.00;99.90
15926;DHT22;8062;53.882;10.642;2023-06-24T04:20:22;13.10;99.90
15926;DHT22;8062;53.882;10.642;2023-06-24T04:21:41;13.10;99.90
15926;DHT22;8062;53.882;10.642;2023-06-24T04:23:01;13.20;99.90
15926;DHT22;8062;53.882;10.642;2023-06-24T04:24:22;13.20;99.90
15926;DHT22;8062;53.882;10.642;2023-06-24T04:25:42;13.20;99.90
15926;DHT22;8062;53.882;10.642;2023-06-24T04:27:02;13.30;99.90
15926;DHT22;8062;53.882;10.642;2023-06-24T04:28:21;13.40;99.90
15926;DHT22;8062;53.882;10.642;2023-06-24T04:29:41;13.40;99.90
15926;DHT22;8062;53.882;10.642;2023-06-24T04:31:00;13.40;99.90
15926;DHT22;8062;53.882;10.642;2023-06-24T04:32:20;13.50;99.90
15926;DHT22;8062;53.882;10.642;2023-06-24T04:33:40;13.50;99.90
15926;DHT22;8062;53.882;10.642;2023-06-24T04:35:00;13.50;99.90
15926;DHT22;8062;53.882;10.642;2023-06-24T04:36:23;13.50;99.90
15926;DHT22;8062;53.882;10.642;2023-06-24T04:37:43;13.60;99.90
15926;DHT22;8062;53.882;10.642;2023-06-24T04:39:03;13.60;99.90
15926;DHT22;8062;53.882;10.642;2023-06-24T04:40:22;13.80;99.90
15926;DHT22;8062;53.882;10.642;2023-06-24T04:41:42;13.80;99.90
15926;DHT22;8062;53.882;10.642;2023-06-24T04:43:02;13.90;99.90
15926;DHT22;8062;53.882;10.642;2023-06-24T04:44:22;13.90;99.90
15926;DHT22;8062;53.882;10.642;2023-06-24T04:45:41;14.10;99.90
15926;DHT22;8062;53.882;10.642;2023-06-24T04:47:01;14.10;99.90
15926;DHT22;8062;53.882;10.642;2023-06-24T04:48:23;14.10;99.90
15926;DHT22;8062;53.882;10.642;2023-06-24T04:49:43;14.10;99.90
15926;DHT22;8062;53.882;10.642;2023-06-24T04:51:03;14.20;99.90
15926;DHT22;8062;53.882;10.642;2023-06-24T04:52:25;14.20;99.90
15926;DHT22;8062;53.882;10.642;2023-06-24T04:53:45;14.30;99.90
15926;DHT22;8062;53.882;10.642;2023-06-24T04:55:05;14.30;99.90
15926;DHT22;8062;53.882;10.642;2023-06-24T04:56:25;14.40;99.90
15926;DHT22;8062;53.882;10.642;2023-06-24T04:57:45;14.40;99.90
15926;DHT22;8062;53.882;10.642;2023-06-24T04:59:04;14.50;99.90
15926;DHT22;8062;53.882;10.642;2023-06-24T05:00:24;14.50;99.90
15926;DHT22;8062;53.882;10.642;2023-06-24T05:01:43;14.60;99.90
15926;DHT22;8062;53.882;10.642;2023-06-24T05:03:03;14.60;99.90
15926;DHT22;8062;53.882;10.642;2023-06-24T05:04:23;14.70;99.90
15926;DHT22;8062;53.882;10.642;2023-06-24T05:05:42;14.80;99.90
15926;DHT22;8062;53.882;10.642;2023-06-24T05:07:02;14.80;99.90
15926;DHT22;8062;53.882;10.642;2023-06-24T05:08:21;14.90;99.90
15926;DHT22;8062;53.882;10.642;2023-06-24T05:09:41;15.00;99.90
15926;DHT22;8062;53.882;10.642;2023-06-24T05:11:02;15.00;99.90
15926;DHT22;8062;53.882;10.642;2023-06-24T05:12:21;15.00;99.90
15926;DHT22;8062;53.882;10.642;2023-06-24T05:13:41;15.10;99.90
15926;DHT22;8062;53.882;10.642;2023-06-24T05:15:01;15.20;99.90
15926;DHT22;8062;53.882;10.642;2023-06-24T05:16:20;15.30;99.90
15926;DHT22;8062;53.882;10.642;2023-06-24T05:17:40;15.40;99.90
15926;DHT22;8062;53.882;10.642;2023-06-24T05:18:59;15.40;99.90
15926;DHT22;8062;53.882;10.642;2023-06-24T05:20:19;15.50;99.90
15926;DHT22;8062;53.882;10.642;2023-06-24T05:21:38;15.50;99.90
15926;DHT22;8062;53.882;10.642;2023-06-24T05:22:58;15.60;99.90
15926;DHT22;8062;53.882;10.642;2023-06-24T05:24:17;15.60;99.90
15926;DHT22;8062;53.882;10.642;2023-06-24T05:25:37;15.60;99.90
15926;DHT22;8062;53.882;10.642;2023-06-24T05:26:56;15.70;99.90
15926;DHT22;8062;53.882;10.642;2023-06-24T05:28:16;15.70;99.90
15926;DHT22;8062;53.882;10.642;2023-06-24T05:29:35;15.80;99.90
15926;DHT22;8062;53.882;10.642;2023-06-24T05:30:56;15.80;99.90
15926;DHT22;8062;53.882;10.642;2023-06-24T05:32:15;15.80;99.90
15926;DHT22;8062;53.882;10.642;2023-06-24T05:33:36;15.90;99.90
15926;DHT22;8062;53.882;10.642;2023-06-24T05:34:56;15.90;99.90
15926;DHT22;8062;53.882;10.642;2023-06-24T05:36:15;16.00;99.90
15926;DHT22;8062;53.882;10.642;2023-06-24T05:37:34;16.10;99.90
15926;DHT22;8062;53.882;10.642;2023-06-24T05:38:54;16.20;99.90
15926;DHT22;8062;53.882;10.642;2023-06-24T05:40:14;16.20;99.90
15926;DHT22;8062;53.882;10.642;2023-06-24T05:41:34;16.20;99.90
15926;DHT22;8062;53.882;10.642;2023-06-24T05:42:53;16.30;99.90
15926;DHT22;8062;53.882;10.642;2023-06-24T05:44:13;16.40;99.90
15926;DHT22;8062;53.882;10.642;2023-06-24T05:45:32;16.50;99.90
15926;DHT22;8062;53.882;10.642;2023-06-24T05:46:52;16.60;99.90
15926;DHT22;8062;53.882;10.642;2023-06-24T05:48:12;16.70;99.90
15926;DHT22;8062;53.882;10.642;2023-06-24T05:49:31;16.80;99.90
15926;DHT22;8062;53.882;10.642;2023-06-24T05:50:51;16.90;99.90
15926;DHT22;8062;53.882;10.642;2023-06-24T05:52:11;16.90;99.90
15926;DHT22;8062;53.882;10.642;2023-06-24T05:53:31;16.90;99.90
15926;DHT22;8062;53.882;10.642;2023-06-24T05:54:50;17.00;99.90
15926;DHT22;8062;53.882;10.642;2023-06-24T05:56:10;17.10;99.90
15926;DHT22;8062;53.882;10.642;2023-06-24T05:57:29;17.20;99.90
15926;DHT22;8062;53.882;10.642;2023-06-24T05:58:49;17.40;99.90
15926;DHT22;8062;53.882;10.642;2023-06-24T06:00:09;17.60;99.90
15926;DHT22;8062;53.882;10.642;2023-06-24T06:01:32;17.70;99.90
15926;DHT22;8062;53.882;10.642;2023-06-24T06:02:51;17.90;99.90
15926;DHT22;8062;53.882;10.642;2023-06-24T06:04:11;18.00;99.90
15926;DHT22;8062;53.882;10.642;2023-06-24T06:05:30;18.00;99.90
15926;DHT22;8062;53.882;10.642;2023-06-24T06:06:50;18.20;99.90
15926;DHT22;8062;53.882;10.642;2023-06-24T06:08:09;18.30;99.90
15926;DHT22;8062;53.882;10.642;2023-06-24T06:09:29;18.40;99.90
15926;DHT22;8062;53.882;10.642;2023-06-24T06:10:48;18.50;99.90
15926;DHT22;8062;53.882;10.642;2023-06-24T06:12:08;18.80;99.90
15926;DHT22;8062;53.882;10.642;2023-06-24T06:13:29;18.80;99.90
15926;DHT22;8062;53.882;10.642;2023-06-24T06:14:48;18.80;99.90
15926;DHT22;8062;53.882;10.642;2023-06-24T06:16:08;18.80;99.90
15926;DHT22;8062;53.882;10.642;2023-06-24T06:17:27;18.80;99.90
15926;DHT22;8062;53.882;10.642;2023-06-24T06:18:47;18.70;99.90
15926;DHT22;8062;53.882;10.642;2023-06-24T06:20:07;18.80;99.90
15926;DHT22;8062;53.882;10.642;2023-06-24T06:21:26;18.70;99.90
15926;DHT22;8062;53.882;10.642;2023-06-24T06:22:46;18.60;99.90
15926;DHT22;8062;53.882;10.642;2023-06-24T06:24:06;18.80;99.90
15926;DHT22;8062;53.882;10.642;2023-06-24T06:25:25;18.80;99.90
15926;DHT22;8062;53.882;10.642;2023-06-24T06:26:45;18.90;99.90
15926;DHT22;8062;53.882;10.642;2023-06-24T06:28:04;18.90;99.90
15926;DHT22;8062;53.882;10.642;2023-06-24T06:29:24;18.80;99.90
15926;DHT22;8062;53.882;10.642;2023-06-24T06:30:43;18.80;99.90
15926;DHT22;8062;53.882;10.642;2023-06-24T06:32:03;18.80;99.90
15926;DHT22;8062;53.882;10.642;2023-06-24T06:33:23;18.80;99.90
15926;DHT22;8062;53.882;10.642;2023-06-24T06:34:42;18.70;99.90
15926;DHT22;8062;53.882;10.642;2023-06-24T06:36:01;18.70;99.90
15926;DHT22;8062;53.882;10.642;2023-06-24T06:37:21;18.60;99.90
15926;DHT22;8062;53.882;10.642;2023-06-24T06:38:41;18.60;99.90
15926;DHT22;8062;53.882;10.642;2023-06-24T06:40:01;18.50;99.90
15926;DHT22;8062;53.882;10.642;2023-06-24T06:41:21;18.70;99.90
15926;DHT22;8062;53.882;10.642;2023-06-24T06:42:43;18.80;99.90
15926;DHT22;8062;53.882;10.642;2023-06-24T06:44:03;19.00;99.90
15926;DHT22;8062;53.882;10.642;2023-06-24T06:45:22;19.30;99.90
15926;DHT22;8062;53.882;10.642;2023-06-24T06:46:42;19.70;99.90
15926;DHT22;8062;53.882;10.642;2023-06-24T06:48:02;20.00;99.90
15926;DHT22;8062;53.882;10.642;2023-06-24T06:49:26;20.10;99.90
15926;DHT22;8062;53.882;10.642;2023-06-24T06:50:46;20.20;99.90
15926;DHT22;8062;53.882;10.642;2023-06-24T06:52:06;20.30;99.90
15926;DHT22;8062;53.882;10.642;2023-06-24T06:53:25;20.50;99.90
15926;DHT22;8062;53.882;10.642;2023-06-24T06:54:44;20.50;99.90
15926;DHT22;8062;53.882;10.642;2023-06-24T06:56:04;20.40;99.90
15926;DHT22;8062;53.882;10.642;2023-06-24T06:57:23;20.60;99.90
15926;DHT22;8062;53.882;10.642;2023-06-24T06:58:43;20.90;99.90
15926;DHT22;8062;53.882;10.642;2023-06-24T07:00:03;21.20;99.90
15926;DHT22;8062;53.882;10.642;2023-06-24T07:01:23;21.00;99.90
15926;DHT22;8062;53.882;10.642;2023-06-24T07:02:43;21.10;99.90
15926;DHT22;8062;53.882;10.642;2023-06-24T07:04:02;21.30;99.90
15926;DHT22;8062;53.882;10.642;2023-06-24T07:05:22;21.30;99.90
15926;DHT22;8062;53.882;10.642;2023-06-24T07:06:41;21.30;99.90
15926;DHT22;8062;53.882;10.642;2023-06-24T07:08:01;21.30;99.90
15926;DHT22;8062;53.882;10.642;2023-06-24T07:09:20;21.30;99.90
15926;DHT22;8062;53.882;10.642;2023-06-24T07:10:40;21.70;99.90
15926;DHT22;8062;53.882;10.642;2023-06-24T07:12:00;21.90;99.90
15926;DHT22;8062;53.882;10.642;2023-06-24T07:13:19;22.60;99.90
15926;DHT22;8062;53.882;10.642;2023-06-24T07:14:39;23.20;99.90
15926;DHT22;8062;53.882;10.642;2023-06-24T07:15:58;23.60;99.30
15926;DHT22;8062;53.882;10.642;2023-06-24T07:17:17;23.50;98.90
15926;DHT22;8062;53.882;10.642;2023-06-24T07:18:37;23.70;98.50
15926;DHT22;8062;53.882;10.642;2023-06-24T07:19:57;23.60;98.10
15926;DHT22;8062;53.882;10.642;2023-06-24T07:21:16;23.50;97.30
15926;DHT22;8062;53.882;10.642;2023-06-24T07:22:36;23.50;97.50
15926;DHT22;8062;53.882;10.642;2023-06-24T07:23:56;23.50;98.20
15926;DHT22;8062;53.882;10.642;2023-06-24T07:25:15;23.50;97.40
15926;DHT22;8062;53.882;10.642;2023-06-24T07:26:35;23.50;97.20
15926;DHT22;8062;53.882;10.642;2023-06-24T07:27:54;24.00;96.00
15926;DHT22;8062;53.882;10.642;2023-06-24T07:29:14;24.10;95.20
15926;DHT22;8062;53.882;10.642;2023-06-24T07:30:33;24.50;95.00
15926;DHT22;8062;53.882;10.642;2023-06-24T07:31:52;24.70;94.90
15926;DHT22;8062;53.882;10.642;2023-06-24T07:33:12;24.90;93.60
15926;DHT22;8062;53.882;10.642;2023-06-24T07:34:31;24.70;94.80
15926;DHT22;8062;53.882;10.642;2023-06-24T07:35:51;24.70;94.80
15926;DHT22;8062;53.882;10.642;2023-06-24T07:37:10;24.70;93.80
15926;DHT22;8062;53.882;10.642;2023-06-24T07:38:30;24.90;92.80
15926;DHT22;8062;53.882;10.642;2023-06-24T07:39:49;25.10;93.80
15926;DHT22;8062;53.882;10.642;2023-06-24T07:41:09;25.10;93.80
15926;DHT22;8062;53.882;10.642;2023-06-24T07:42:28;25.40;93.40
15926;DHT22;8062;53.882;10.642;2023-06-24T07:43:48;25.40;92.90
15926;DHT22;8062;53.882;10.642;2023-06-24T07:45:08;25.50;93.20
15926;DHT22;8062;53.882;10.642;2023-06-24T07:46:27;25.70;92.60
15926;DHT22;8062;53.882;10.642;2023-06-24T07:47:47;25.60;92.90
15926;DHT22;8062;53.882;10.642;2023-06-24T07:49:07;25.60;92.80
15926;DHT22;8062;53.882;10.642;2023-06-24T07:50:26;25.70;92.00
15926;DHT22;8062;53.882;10.642;2023-06-24T07:51:46;25.80;91.80
15926;DHT22;8062;53.882;10.642;2023-06-24T07:53:05;26.00;90.90
15926;DHT22;8062;53.882;10.642;2023-06-24T07:54:24;25.70;90.90
15926;DHT22;8062;53.882;10.642;2023-06-24T07:55:44;25.70;91.50
15926;DHT22;8062;53.882;10.642;2023-06-24T07:57:04;25.60;91.60
15926;DHT22;8062;53.882;10.642;2023-06-24T07:58:23;25.50;91.80
15926;DHT22;8062;53.882;10.642;2023-06-24T07:59:43;25.50;90.00
15926;DHT22;8062;53.882;10.642;2023-06-24T08:01:03;25.60;91.40
15926;DHT22;8062;53.882;10.642;2023-06-24T08:02:22;25.50;90.50
15926;DHT22;8062;53.882;10.642;2023-06-24T08:03:45;25.10;92.10
15926;DHT22;8062;53.882;10.642;2023-06-24T08:05:05;25.10;92.40
15926;DHT22;8062;53.882;10.642;2023-06-24T08:06:25;25.30;91.90
15926;DHT22;8062;53.882;10.642;2023-06-24T08:07:46;25.30;91.50
15926;DHT22;8062;53.882;10.642;2023-06-24T08:09:06;25.30;91.80
15926;DHT22;8062;53.882;10.642;2023-06-24T08:10:25;25.30;92.50
15926;DHT22;8062;53.882;10.642;2023-06-24T08:11:45;25.10;93.70
15926;DHT22;8062;53.882;10.642;2023-06-24T08:13:04;24.50;92.40
15926;DHT22;8062;53.882;10.642;2023-06-24T08:14:23;24.60;92.10
15926;DHT22;8062;53.882;10.642;2023-06-24T08:15:43;24.80;92.10
15926;DHT22;8062;53.882;10.642;2023-06-24T08:17:04;24.60;92.40
15926;DHT22;8062;53.882;10.642;2023-06-24T08:18:23;24.50;92.20
15926;DHT22;8062;53.882;10.642;2023-06-24T08:19:43;24.60;91.90
15926;DHT22;8062;53.882;10.642;2023-06-24T08:21:02;24.30;92.60
15926;DHT22;8062;53.882;10.642;2023-06-24T08:22:22;24.10;93.30
15926;DHT22;8062;53.882;10.642;2023-06-24T08:23:41;23.80;95.10
15926;DHT22;8062;53.882;10.642;2023-06-24T08:25:01;23.80;95.30
15926;DHT22;8062;53.882;10.642;2023-06-24T08:26:21;23.90;94.20
15926;DHT22;8062;53.882;10.642;2023-06-24T08:27:41;24.10;94.90
15926;DHT22;8062;53.882;10.642;2023-06-24T08:29:02;24.50;93.60
15926;DHT22;8062;53.882;10.642;2023-06-24T08:30:22;25.00;92.10
15926;DHT22;8062;53.882;10.642;2023-06-24T08:31:41;25.10;91.70
15926;DHT22;8062;53.882;10.642;2023-06-24T08:33:01;25.20;92.10
15926;DHT22;8062;53.882;10.642;2023-06-24T08:34:21;25.10;90.90
15926;DHT22;8062;53.882;10.642;2023-06-24T08:35:40;25.50;91.20
15926;DHT22;8062;53.882;10.642;2023-06-24T08:37:01;25.30;91.30
15926;DHT22;8062;53.882;10.642;2023-06-24T08:38:20;25.40;91.30